Terminal Aerodrome Forecast
Issued by NWS Wakefield, VA

Home | Current Version | Previous Version | Text Only | Print | Product List | Glossary On
Versions: 1 2 3 4 5 6 7 8 9 10 11 12 13 14 15 16 17 18 19 20 21 22 23 24 25 26 27 28 29 30 31 32
000
FTUS41 KAKQ 301140
TAFSBY
TAF
KSBY 301140Z 3012/0112 05009KT 5SM BR VCSH OVC008
     FM301400 06008KT P6SM OVC015
      TEMPO 3014/3016 4SM BR OVC008
     FM010000 07005KT 3SM BR OVC020
     FM010300 07006KT 5SM -SHRA OVC007=

USA.gov is the U.S. government's official web portal to all federal, state and local government web resources and services.